createdAt,value
2018-01-15T00:00:12.993Z,28.90
2018-01-15T00:01:13.029Z,29.70
2018-01-15T00:02:13.048Z,31.40
2018-01-15T00:03:13.078Z,29.80
2018-01-15T00:04:13.105Z,28.70
2018-01-15T00:05:13.196Z,29.00
2018-01-15T00:06:13.164Z,30.40
2018-01-15T00:07:13.186Z,32.00
2018-01-15T00:08:13.211Z,33.60
2018-01-15T00:09:13.239Z,30.30
2018-01-15T00:10:13.266Z,31.50
2018-01-15T00:11:13.297Z,31.60
2018-01-15T00:12:13.320Z,31.10
2018-01-15T00:13:13.345Z,30.40
2018-01-15T00:14:13.378Z,31.10
2018-01-15T00:15:13.399Z,31.50
2018-01-15T00:16:13.429Z,27.70
2018-01-15T00:17:13.456Z,30.60
2018-01-15T00:18:13.482Z,29.40
2018-01-15T00:19:13.508Z,30.40
2018-01-15T00:20:13.537Z,27.60
2018-01-15T00:21:13.567Z,27.60
2018-01-15T00:22:13.624Z,29.10
2018-01-15T00:23:13.620Z,25.40
2018-01-15T00:24:13.647Z,26.70
2018-01-15T00:25:13.672Z,25.70
2018-01-15T00:26:13.700Z,27.20
2018-01-15T00:27:13.725Z,26.50
2018-01-15T00:28:13.756Z,26.70
2018-01-15T00:29:14.103Z,26.70
2018-01-15T00:30:13.808Z,26.10
2018-01-15T00:31:13.839Z,25.40
2018-01-15T00:32:13.868Z,27.00
2018-01-15T00:33:13.888Z,24.70
2018-01-15T00:34:13.918Z,24.10
2018-01-15T00:35:13.943Z,23.60
2018-01-15T00:36:13.971Z,23.90
2018-01-15T00:37:13.998Z,23.90
2018-01-15T00:38:14.028Z,27.00
2018-01-15T00:39:14.054Z,24.20
2018-01-15T00:40:14.081Z,23.20
2018-01-15T00:41:14.419Z,25.60
2018-01-15T00:42:14.143Z,24.60
2018-01-15T00:43:14.163Z,23.50
2018-01-15T00:44:14.190Z,24.70
2018-01-15T00:45:14.216Z,23.90
2018-01-15T00:46:14.243Z,25.50
2018-01-15T00:47:14.271Z,23.40
2018-01-15T00:48:14.299Z,24.80
2018-01-15T00:49:14.325Z,24.80
2018-01-15T00:50:14.352Z,26.10
2018-01-15T00:51:14.381Z,22.90
2018-01-15T00:52:14.421Z,25.10
2018-01-15T00:53:14.436Z,24.30
2018-01-15T00:54:14.461Z,26.10
2018-01-15T00:55:14.499Z,23.40
2018-01-15T00:56:14.514Z,24.20
2018-01-15T00:57:14.542Z,22.60
2018-01-15T00:58:14.643Z,24.60
2018-01-15T00:59:14.600Z,24.80
2018-01-15T01:00:14.636Z,25.10
2018-01-15T01:01:14.653Z,25.90
2018-01-15T01:02:14.681Z,25.00
2018-01-15T01:03:14.704Z,25.80
2018-01-15T01:04:14.734Z,25.50
2018-01-15T01:05:14.763Z,27.90
2018-01-15T01:06:14.789Z,27.60
2018-01-15T01:07:14.814Z,28.40
2018-01-15T01:08:14.841Z,25.70
2018-01-15T01:09:14.867Z,29.00
2018-01-15T01:10:15.210Z,31.50
2018-01-15T01:11:14.921Z,32.10
2018-01-15T01:12:14.952Z,30.70
2018-01-15T01:13:14.977Z,32.20
2018-01-15T01:14:15.005Z,30.80
2018-01-15T01:15:15.355Z,32.20
2018-01-15T01:16:15.067Z,32.60
2018-01-15T01:17:15.086Z,32.00
2018-01-15T01:18:15.113Z,32.30
2018-01-15T01:19:15.138Z,34.60
2018-01-15T01:20:15.166Z,36.20
2018-01-15T01:21:15.207Z,34.60
2018-01-15T01:22:15.223Z,34.10
2018-01-15T01:23:15.245Z,33.10
2018-01-15T01:24:15.274Z,34.80
2018-01-15T01:25:15.305Z,34.40
2018-01-15T01:26:15.332Z,31.80
2018-01-15T01:27:15.423Z,33.40
2018-01-15T01:28:15.385Z,33.10
2018-01-15T01:29:15.415Z,34.60
2018-01-15T01:30:15.438Z,34.80
2018-01-15T01:31:15.465Z,34.30
2018-01-15T01:32:15.496Z,36.60
2018-01-15T01:33:15.522Z,34.90
2018-01-15T01:34:15.548Z,32.60
2018-01-15T01:35:15.577Z,31.90
2018-01-15T01:36:15.806Z,33.70
2018-01-15T01:37:15.630Z,30.20
2018-01-15T01:38:15.659Z,31.30
2018-01-15T01:39:15.699Z,28.80
2018-01-15T01:40:15.710Z,29.60
2018-01-15T01:41:15.736Z,29.60
2018-01-15T01:42:15.766Z,26.30
2018-01-15T01:43:15.788Z,27.50
2018-01-15T01:44:15.918Z,27.50
2018-01-15T01:45:15.846Z,28.40
2018-01-15T01:46:15.877Z,25.90
2018-01-15T01:47:15.899Z,25.00
2018-01-15T01:48:15.928Z,26.20
2018-01-15T01:49:16.010Z,28.80
2018-01-15T01:50:15.981Z,26.60
2018-01-15T01:51:16.007Z,26.30
2018-01-15T01:52:16.042Z,26.40
2018-01-15T01:53:16.070Z,26.00
2018-01-15T01:54:16.091Z,26.80
2018-01-15T01:55:16.115Z,28.10
2018-01-15T01:56:16.143Z,24.50
2018-01-15T01:57:16.171Z,25.00
2018-01-15T01:58:16.197Z,26.00
2018-01-15T01:59:16.226Z,23.70
2018-01-15T02:00:16.254Z,23.50
2018-01-15T02:01:16.347Z,24.30
2018-01-15T02:02:16.307Z,25.30
2018-01-15T02:03:16.333Z,23.30
2018-01-15T02:04:16.361Z,26.30
2018-01-15T02:05:16.387Z,24.80
2018-01-15T02:06:16.413Z,26.40
2018-01-15T02:07:16.448Z,23.10
2018-01-15T02:08:16.469Z,25.50
2018-01-15T02:09:16.499Z,25.40
2018-01-15T02:10:16.587Z,25.20
2018-01-15T02:11:16.549Z,26.40
2018-01-15T02:12:16.579Z,27.50
2018-01-15T02:13:16.612Z,26.50
2018-01-15T02:14:16.631Z,25.00
2018-01-15T02:15:16.660Z,25.40
2018-01-15T02:16:16.686Z,24.50
2018-01-15T02:17:16.711Z,24.10
2018-01-15T02:18:16.743Z,23.40
2018-01-15T02:19:16.766Z,27.90
2018-01-15T02:20:17.120Z,26.20
2018-01-15T02:21:16.820Z,25.60
2018-01-15T02:22:16.850Z,26.60
2018-01-15T02:23:16.876Z,25.60
2018-01-15T02:24:16.916Z,26.10
2018-01-15T02:25:16.932Z,23.20
2018-01-15T02:26:16.958Z,23.30
2018-01-15T02:27:16.983Z,23.80
2018-01-15T02:28:17.012Z,23.00
2018-01-15T02:29:17.042Z,24.20
2018-01-15T02:30:17.116Z,22.80
2018-01-15T02:31:17.092Z,22.60
2018-01-15T02:32:17.121Z,23.10
2018-01-15T02:33:17.147Z,24.90
2018-01-15T02:34:17.173Z,24.30
2018-01-15T02:35:17.202Z,24.00
2018-01-15T02:36:17.228Z,25.50
2018-01-15T02:37:17.475Z,24.90
2018-01-15T02:38:17.281Z,24.50
2018-01-15T02:39:17.311Z,25.80
2018-01-15T02:40:17.336Z,25.80
2018-01-15T02:41:17.362Z,24.20
2018-01-15T02:42:17.397Z,23.80
2018-01-15T02:43:17.415Z,24.20
2018-01-15T02:44:17.442Z,23.80
2018-01-15T02:45:17.472Z,26.10
2018-01-15T02:46:17.503Z,24.10
2018-01-15T02:47:17.525Z,25.50
2018-01-15T02:48:17.552Z,27.50
2018-01-15T02:49:17.578Z,26.60
2018-01-15T02:50:17.607Z,26.60
2018-01-15T02:51:17.634Z,28.10
2018-01-15T02:52:17.662Z,27.40
2018-01-15T02:53:17.686Z,32.20
2018-01-15T02:54:17.739Z,29.80
2018-01-15T02:55:17.751Z,30.10
2018-01-15T02:56:17.768Z,27.90
2018-01-15T02:57:17.797Z,26.40
2018-01-15T02:58:17.825Z,26.70
2018-01-15T02:59:17.864Z,28.00
2018-01-15T03:00:17.878Z,27.20
2018-01-15T03:01:17.911Z,27.10
2018-01-15T03:02:17.935Z,26.10
2018-01-15T03:03:17.958Z,27.30
2018-01-15T03:04:17.987Z,26.80
2018-01-15T03:05:18.015Z,25.80
2018-01-15T03:06:18.045Z,26.20
2018-01-15T03:07:18.066Z,27.60
2018-01-15T03:08:18.095Z,27.60
2018-01-15T03:09:18.120Z,26.80
2018-01-15T03:10:18.147Z,29.10
2018-01-15T03:11:18.179Z,26.70
2018-01-15T03:12:18.201Z,28.90
2018-01-15T03:13:18.229Z,25.60
2018-01-15T03:14:18.264Z,27.50
2018-01-15T03:15:18.280Z,26.40
2018-01-15T03:16:18.308Z,24.70
2018-01-15T03:17:18.336Z,26.00
2018-01-15T03:18:18.366Z,25.30
2018-01-15T03:19:18.388Z,25.80
2018-01-15T03:20:18.416Z,23.10
2018-01-15T03:21:18.446Z,24.40
2018-01-15T03:22:18.472Z,22.20
2018-01-15T03:23:18.563Z,23.20
2018-01-15T03:24:18.527Z,21.20
2018-01-15T03:25:18.560Z,23.80
2018-01-15T03:26:18.579Z,23.20
2018-01-15T03:27:18.652Z,21.80
2018-01-15T03:28:18.637Z,21.80
2018-01-15T03:29:18.731Z,24.40
2018-01-15T03:30:18.688Z,23.90
2018-01-15T03:31:18.718Z,22.10
2018-01-15T03:32:18.742Z,23.10
2018-01-15T03:33:18.772Z,23.70
2018-01-15T03:34:18.807Z,23.90
2018-01-15T03:35:18.823Z,22.40
2018-01-15T03:36:18.855Z,23.80
2018-01-15T03:37:18.878Z,24.50
2018-01-15T03:38:18.908Z,24.20
2018-01-15T03:39:18.933Z,22.50
2018-01-15T03:40:18.992Z,21.70
2018-01-15T03:41:18.989Z,22.40
2018-01-15T03:42:19.019Z,22.10
2018-01-15T03:43:19.044Z,22.60
2018-01-15T03:44:19.072Z,20.50
2018-01-15T03:45:19.099Z,21.90
2018-01-15T03:46:19.130Z,22.00
2018-01-15T03:47:19.160Z,20.80
2018-01-15T03:48:19.183Z,21.90
2018-01-15T03:49:19.211Z,20.40
2018-01-15T03:50:19.242Z,23.20
2018-01-15T03:51:19.265Z,23.60
2018-01-15T03:52:19.296Z,20.00
2018-01-15T03:53:19.320Z,22.90
2018-01-15T03:54:19.351Z,22.30
2018-01-15T03:55:19.375Z,21.10
2018-01-15T03:56:19.407Z,20.40
2018-01-15T03:57:19.495Z,22.40
2018-01-15T03:58:19.461Z,22.50
2018-01-15T03:59:19.492Z,22.10
2018-01-15T04:00:19.513Z,21.80
2018-01-15T04:01:19.548Z,22.60
2018-01-15T04:02:19.569Z,21.70
2018-01-15T04:03:19.596Z,21.50
2018-01-15T04:04:19.627Z,21.30
2018-01-15T04:05:19.662Z,21.90
2018-01-15T04:06:19.680Z,22.40
2018-01-15T04:07:19.706Z,22.80
2018-01-15T04:08:19.734Z,20.00
2018-01-15T04:09:19.817Z,21.10
2018-01-15T04:10:19.792Z,20.90
2018-01-15T04:11:19.818Z,20.50
2018-01-15T04:12:19.848Z,19.90
2018-01-15T04:13:19.878Z,21.20
2018-01-15T04:14:19.901Z,20.40
2018-01-15T04:15:19.932Z,20.30
2018-01-15T04:16:20.098Z,22.60
2018-01-15T04:17:19.984Z,19.80
2018-01-15T04:18:20.015Z,21.20
2018-01-15T04:19:20.045Z,19.90
2018-01-15T04:20:20.069Z,18.20
2018-01-15T04:21:20.096Z,21.50
2018-01-15T04:22:20.123Z,19.80
2018-01-15T04:23:20.155Z,21.80
2018-01-15T04:24:20.179Z,21.70
2018-01-15T04:25:20.206Z,19.60
2018-01-15T04:26:20.236Z,20.80
2018-01-15T04:27:20.263Z,20.10
2018-01-15T04:28:20.294Z,20.90
2018-01-15T04:29:20.320Z,21.60
2018-01-15T04:30:20.346Z,21.60
2018-01-15T04:31:20.375Z,21.00
2018-01-15T04:32:20.404Z,20.30
2018-01-15T04:33:20.477Z,22.10
2018-01-15T04:34:20.460Z,23.20
2018-01-15T04:35:20.487Z,24.70
2018-01-15T04:36:20.514Z,23.50
2018-01-15T04:37:20.543Z,24.70
2018-01-15T04:38:20.570Z,23.80
2018-01-15T04:39:20.597Z,23.50
2018-01-15T04:40:20.624Z,22.10
2018-01-15T04:41:20.655Z,25.80
2018-01-15T04:42:20.686Z,23.60
2018-01-15T04:43:20.720Z,23.30
2018-01-15T04:44:20.737Z,23.60
2018-01-15T04:45:20.765Z,27.00
2018-01-15T04:46:20.795Z,24.80
2018-01-15T04:47:20.821Z,23.60
2018-01-15T04:48:20.851Z,24.00
2018-01-15T04:49:20.877Z,23.70
2018-01-15T04:50:21.017Z,23.70
2018-01-15T04:51:20.936Z,23.40
2018-01-15T04:52:20.961Z,23.60
2018-01-15T04:53:20.991Z,21.80
2018-01-15T04:54:21.018Z,21.60
2018-01-15T04:55:21.047Z,23.30
2018-01-15T04:56:21.079Z,21.50
2018-01-15T04:57:21.102Z,22.80
2018-01-15T04:58:21.131Z,23.30
2018-01-15T04:59:21.158Z,22.20
2018-01-15T05:00:21.187Z,21.00
2018-01-15T05:01:21.217Z,21.00
2018-01-15T05:02:21.265Z,21.90
2018-01-15T05:03:21.273Z,22.60
2018-01-15T05:04:21.301Z,22.30
2018-01-15T05:05:21.329Z,22.00
2018-01-15T05:06:21.359Z,22.00
2018-01-15T05:07:21.384Z,20.40
2018-01-15T05:08:21.412Z,22.10
2018-01-15T05:09:21.544Z,21.00
2018-01-15T05:10:21.471Z,20.20
2018-01-15T05:11:21.499Z,19.30
2018-01-15T05:12:21.529Z,22.50
2018-01-15T05:13:21.556Z,22.90
2018-01-15T05:14:21.603Z,22.40
2018-01-15T05:15:21.612Z,21.80
2018-01-15T05:16:21.644Z,19.20
2018-01-15T05:17:21.673Z,21.30
2018-01-15T05:18:21.700Z,20.00
2018-01-15T05:19:21.730Z,20.80
2018-01-15T05:20:21.763Z,20.60
2018-01-15T05:21:21.784Z,23.70
2018-01-15T05:22:21.813Z,21.20
2018-01-15T05:24:21.870Z,22.10
2018-01-15T05:25:21.899Z,20.50
2018-01-15T05:26:21.995Z,21.60
2018-01-15T05:27:22.002Z,22.60
2018-01-15T05:28:21.981Z,22.10
2018-01-15T05:29:22.024Z,21.00
2018-01-15T05:30:22.039Z,20.10
2018-01-15T05:31:22.065Z,20.90
2018-01-15T05:32:22.092Z,22.70
2018-01-15T05:33:22.131Z,21.60
2018-01-15T05:34:22.150Z,21.00
2018-01-15T05:35:22.179Z,19.80
2018-01-15T05:36:22.209Z,19.40
2018-01-15T05:37:22.235Z,21.60
2018-01-15T05:38:22.322Z,21.70
2018-01-15T05:39:22.350Z,19.80
2018-01-15T05:40:22.320Z,20.80
2018-01-15T05:41:22.351Z,21.70
2018-01-15T05:42:22.381Z,20.30
2018-01-15T05:43:22.433Z,20.20
2018-01-15T05:44:22.433Z,22.20
2018-01-15T05:45:22.466Z,22.30
2018-01-15T05:46:22.495Z,21.40
2018-01-15T05:47:22.522Z,24.10
2018-01-15T05:48:22.551Z,20.90
2018-01-15T05:49:22.584Z,21.80
2018-01-15T05:50:22.607Z,22.10
2018-01-15T05:51:22.634Z,22.30
2018-01-15T05:52:22.666Z,22.00
2018-01-15T05:53:22.692Z,20.70
2018-01-15T05:54:22.724Z,21.90
2018-01-15T05:55:22.803Z,22.50
2018-01-15T05:56:22.780Z,22.90
2018-01-15T05:57:22.809Z,24.50
2018-01-15T05:58:22.835Z,22.40
2018-01-15T05:59:22.863Z,21.40
2018-01-15T06:00:22.898Z,20.20
2018-01-15T06:01:22.927Z,22.70
2018-01-15T06:02:23.265Z,24.00
2018-01-15T06:03:22.974Z,20.90
2018-01-15T06:04:23.005Z,20.30
2018-01-15T06:05:23.033Z,20.50
2018-01-15T06:06:23.074Z,21.90
2018-01-15T06:07:23.095Z,20.00
2018-01-15T06:08:23.117Z,19.70
2018-01-15T06:09:23.156Z,20.60
2018-01-15T06:10:23.183Z,21.20
2018-01-15T06:11:23.205Z,21.20
2018-01-15T06:12:23.235Z,20.90
2018-01-15T06:13:23.318Z,21.40
2018-01-15T06:14:23.287Z,22.50
2018-01-15T06:15:23.315Z,23.40
2018-01-15T06:16:23.345Z,21.70
2018-01-15T06:17:23.375Z,22.70
2018-01-15T06:18:23.401Z,22.80
2018-01-15T06:19:23.535Z,25.00
2018-01-15T06:20:23.457Z,22.30
2018-01-15T06:21:23.484Z,22.60
2018-01-15T06:22:23.516Z,23.70
2018-01-15T06:23:23.541Z,24.20
2018-01-15T06:24:23.572Z,23.60
2018-01-15T06:25:23.598Z,21.80
2018-01-15T06:26:23.627Z,21.20
2018-01-15T06:27:23.657Z,20.80
2018-01-15T06:28:23.686Z,21.50
2018-01-15T06:29:23.730Z,20.50
2018-01-15T06:30:23.749Z,23.40
2018-01-15T06:31:23.779Z,22.50
2018-01-15T06:32:23.797Z,22.20
2018-01-15T06:33:23.826Z,23.00
2018-01-15T06:34:23.858Z,23.30
2018-01-15T06:35:23.883Z,23.60
2018-01-15T06:36:23.976Z,23.40
2018-01-15T06:37:23.938Z,23.50
2018-01-15T06:38:23.968Z,22.80
2018-01-15T06:39:23.999Z,22.00
2018-01-15T06:40:24.024Z,22.60
2018-01-15T06:41:24.053Z,23.10
2018-01-15T06:42:24.083Z,21.30
2018-01-15T06:43:24.109Z,21.10
2018-01-15T06:44:24.138Z,24.80
2018-01-15T06:45:24.168Z,23.80
2018-01-15T06:46:24.195Z,23.90
2018-01-15T06:47:24.224Z,24.40
2018-01-15T06:48:24.310Z,22.60
2018-01-15T06:49:24.282Z,24.50
2018-01-15T06:50:24.318Z,25.30
2018-01-15T06:51:24.338Z,24.00
2018-01-15T06:52:24.370Z,25.40
2018-01-15T06:53:24.394Z,25.40
2018-01-15T06:54:24.430Z,22.40
2018-01-15T06:55:24.484Z,21.10
2018-01-15T06:56:24.480Z,23.00
2018-01-15T06:57:24.510Z,21.50
2018-01-15T06:58:24.539Z,22.80
2018-01-15T06:59:24.564Z,22.80
2018-01-15T07:00:24.595Z,21.80
2018-01-15T07:01:24.622Z,22.50
2018-01-15T07:02:24.651Z,23.60
2018-01-15T07:03:24.683Z,24.00
2018-01-15T07:04:24.711Z,22.10
2018-01-15T07:05:24.742Z,23.90
2018-01-15T07:06:24.766Z,23.90
2018-01-15T07:07:24.794Z,23.20
2018-01-15T07:08:24.823Z,22.00
2018-01-15T07:09:24.854Z,26.90
2018-01-15T07:10:24.882Z,23.40
2018-01-15T07:11:24.911Z,24.20
2018-01-15T07:12:24.988Z,22.40
2018-01-15T07:13:24.972Z,25.80
2018-01-15T07:14:24.997Z,27.90
2018-01-15T07:15:25.026Z,24.20
2018-01-15T07:16:25.055Z,21.70
2018-01-15T07:17:25.086Z,24.80
2018-01-15T07:18:25.113Z,23.50
2018-01-15T07:19:25.142Z,23.70
2018-01-15T07:20:25.173Z,23.20
2018-01-15T07:21:25.203Z,23.70
2018-01-15T07:22:25.234Z,24.60
2018-01-15T07:23:25.305Z,26.60
2018-01-15T07:24:25.289Z,26.20
2018-01-15T07:25:25.317Z,24.60
2018-01-15T07:26:25.345Z,25.20
2018-01-15T07:27:25.375Z,25.60
2018-01-15T07:28:25.406Z,23.10
2018-01-15T07:29:25.634Z,22.70
2018-01-15T07:30:25.465Z,23.80
2018-01-15T07:31:25.489Z,23.00
2018-01-15T07:32:25.517Z,23.30
2018-01-15T07:33:25.548Z,24.20
2018-01-15T07:34:25.583Z,24.70
2018-01-15T07:35:25.617Z,25.20
2018-01-15T07:36:25.634Z,25.70
2018-01-15T07:37:25.665Z,23.80
2018-01-15T07:38:25.695Z,22.30
2018-01-15T07:39:25.720Z,24.70
2018-01-15T07:40:25.750Z,22.60
2018-01-15T07:41:25.910Z,23.20
2018-01-15T07:42:25.808Z,23.40
2018-01-15T07:43:25.835Z,21.70
2018-01-15T07:44:25.889Z,20.50
2018-01-15T07:45:25.895Z,21.40
2018-01-15T07:46:25.926Z,20.80
2018-01-15T07:47:25.958Z,19.40
2018-01-15T07:48:25.980Z,20.20
2018-01-15T07:49:26.014Z,20.50
2018-01-15T07:50:26.039Z,22.40
2018-01-15T07:51:26.068Z,21.60
2018-01-15T07:52:26.099Z,20.40
2018-01-15T07:53:26.139Z,21.30
2018-01-15T07:54:26.157Z,20.60
2018-01-15T07:55:26.187Z,20.90
2018-01-15T07:56:26.217Z,21.50
2018-01-15T07:57:26.247Z,21.00
2018-01-15T07:58:26.278Z,23.60
2018-01-15T07:59:26.302Z,22.90
2018-01-15T08:00:26.331Z,36.10
2018-01-15T08:01:26.362Z,34.40
2018-01-15T08:02:26.392Z,29.80
2018-01-15T08:03:26.427Z,24.90
2018-01-15T08:04:26.446Z,22.20
2018-01-15T08:05:26.547Z,21.30
2018-01-15T08:06:26.507Z,21.30
2018-01-15T08:07:26.539Z,22.30
2018-01-15T08:08:26.570Z,22.30
2018-01-15T08:09:26.631Z,20.90
2018-01-15T08:10:26.629Z,21.80
2018-01-15T08:11:26.705Z,22.30
2018-01-15T08:12:27.006Z,22.20
2018-01-15T08:13:26.711Z,22.10
2018-01-15T08:14:26.742Z,21.70
2018-01-15T08:15:26.774Z,23.00
2018-01-15T08:16:26.799Z,22.70
2018-01-15T08:17:26.828Z,22.60
2018-01-15T08:18:26.861Z,20.50
2018-01-15T08:19:26.892Z,21.90
2018-01-15T08:20:26.933Z,21.70
2018-01-15T08:21:26.950Z,21.90
2018-01-15T08:22:26.992Z,22.50
2018-01-15T08:23:27.006Z,20.90
2018-01-15T08:24:27.035Z,21.00
2018-01-15T08:25:27.066Z,23.60
2018-01-15T08:26:27.095Z,22.20
2018-01-15T08:27:27.160Z,21.90
2018-01-15T08:28:27.155Z,22.60
2018-01-15T08:29:27.183Z,21.80
2018-01-15T08:30:27.236Z,23.30
2018-01-15T08:31:27.250Z,24.20
2018-01-15T08:32:27.279Z,23.10
2018-01-15T08:33:27.308Z,21.50
2018-01-15T08:34:27.331Z,26.00
2018-01-15T08:35:27.360Z,23.60
2018-01-15T08:36:27.396Z,22.50
2018-01-15T08:37:27.421Z,24.20
2018-01-15T08:38:27.450Z,23.80
2018-01-15T08:39:27.478Z,22.20
2018-01-15T08:40:27.514Z,22.50
2018-01-15T08:41:27.655Z,25.10
2018-01-15T08:42:27.568Z,22.20
2018-01-15T08:43:27.596Z,23.60
2018-01-15T08:44:27.626Z,25.50
2018-01-15T08:45:27.658Z,22.40
2018-01-15T08:46:27.685Z,23.60
2018-01-15T08:47:27.715Z,23.30
2018-01-15T08:48:28.075Z,24.50
2018-01-15T08:49:27.775Z,24.80
2018-01-15T08:50:27.804Z,23.50
2018-01-15T08:51:27.833Z,25.00
2018-01-15T08:52:27.863Z,24.50
2018-01-15T08:53:27.909Z,24.70
2018-01-15T08:54:27.928Z,25.60
2018-01-15T08:55:27.953Z,26.00
2018-01-15T08:56:27.984Z,24.90
2018-01-15T08:57:28.018Z,25.50
2018-01-15T08:58:28.045Z,26.30
2018-01-15T08:59:28.069Z,25.40
2018-01-15T09:00:28.111Z,25.50
2018-01-15T09:01:28.129Z,24.80
2018-01-15T09:02:28.167Z,24.90
2018-01-15T09:03:28.189Z,24.00
2018-01-15T09:04:28.218Z,23.50
2018-01-15T09:05:28.575Z,24.90
2018-01-15T09:06:28.281Z,24.90
2018-01-15T09:07:28.366Z,26.70
2018-01-15T09:08:28.337Z,24.10
2018-01-15T09:09:28.366Z,27.60
2018-01-15T09:10:28.397Z,26.00
2018-01-15T09:11:28.427Z,26.00
2018-01-15T09:12:28.464Z,24.60
2018-01-15T09:13:28.486Z,25.90
2018-01-15T09:14:28.516Z,25.90
2018-01-15T09:15:28.544Z,24.30
2018-01-15T09:16:28.576Z,26.50
2018-01-15T09:17:28.605Z,24.30
2018-01-15T09:18:28.638Z,25.90
2018-01-15T09:19:28.665Z,25.60
2018-01-15T09:20:28.696Z,24.50
2018-01-15T09:21:28.725Z,25.50
2018-01-15T09:22:28.757Z,24.40
2018-01-15T09:23:28.785Z,29.80
2018-01-15T09:24:28.905Z,24.80
2018-01-15T09:25:28.850Z,26.00
2018-01-15T09:26:28.875Z,24.40
2018-01-15T09:27:28.907Z,24.70
2018-01-15T09:28:28.937Z,25.60
2018-01-15T09:29:28.966Z,26.30
2018-01-15T09:30:28.997Z,25.20
2018-01-15T09:31:29.027Z,24.30
2018-01-15T09:32:29.058Z,26.90
2018-01-15T09:33:29.128Z,28.10
2018-01-15T09:34:29.118Z,29.90
2018-01-15T09:35:29.147Z,28.30
2018-01-15T09:36:29.191Z,29.70
2018-01-15T09:37:29.261Z,30.70
2018-01-15T09:38:29.241Z,30.80
2018-01-15T09:39:29.269Z,32.60
2018-01-15T09:40:29.296Z,30.90
2018-01-15T09:41:29.651Z,30.00
2018-01-15T09:42:29.357Z,36.00
2018-01-15T09:43:29.389Z,34.90
2018-01-15T09:44:29.419Z,30.40
2018-01-15T09:45:29.448Z,31.60
2018-01-15T09:46:29.479Z,29.90
2018-01-15T09:47:29.508Z,30.70
2018-01-15T09:48:29.657Z,32.00
2018-01-15T09:49:29.568Z,29.90
2018-01-15T09:50:29.599Z,28.30
2018-01-15T09:51:29.629Z,28.90
2018-01-15T09:52:29.662Z,29.90
2018-01-15T09:53:29.691Z,28.70
2018-01-15T09:54:29.722Z,27.90
2018-01-15T09:55:29.773Z,28.30
2018-01-15T09:56:29.782Z,29.60
2018-01-15T09:57:29.808Z,28.20
2018-01-15T09:58:29.843Z,29.00
2018-01-15T09:59:29.871Z,28.00
2018-01-15T10:00:29.901Z,28.60
2018-01-15T10:01:29.940Z,29.30
2018-01-15T10:02:29.962Z,33.10
2018-01-15T10:03:29.990Z,29.30
2018-01-15T10:04:30.023Z,33.10
2018-01-15T10:05:30.158Z,30.70
2018-01-15T10:06:30.082Z,33.00
2018-01-15T10:07:30.113Z,29.50
2018-01-15T10:08:30.143Z,27.70
2018-01-15T10:09:30.173Z,28.30
2018-01-15T10:10:30.207Z,26.00
2018-01-15T10:11:30.234Z,27.70
2018-01-15T10:12:30.265Z,29.70
2018-01-15T10:13:30.294Z,28.10
2018-01-15T10:14:30.340Z,30.70
2018-01-15T10:15:30.354Z,26.70
2018-01-15T10:16:30.386Z,27.20
2018-01-15T10:17:30.431Z,26.80
2018-01-15T10:18:30.443Z,27.60
2018-01-15T10:19:30.476Z,29.50
2018-01-15T10:20:30.504Z,30.20
2018-01-15T10:21:30.595Z,27.80
2018-01-15T10:22:30.577Z,30.70
2018-01-15T10:23:30.595Z,29.60
2018-01-15T10:24:30.696Z,32.40
2018-01-15T10:25:30.658Z,30.10
2018-01-15T10:26:30.697Z,32.30
2018-01-15T10:27:30.723Z,30.40
2018-01-15T10:28:30.747Z,29.50
2018-01-15T10:29:30.782Z,31.70
2018-01-15T10:30:30.808Z,32.00
2018-01-15T10:31:30.838Z,33.40
2018-01-15T10:32:30.868Z,29.30
2018-01-15T10:33:30.899Z,28.00
2018-01-15T10:34:30.933Z,27.10
2018-01-15T10:35:30.964Z,27.60
2018-01-15T10:36:30.988Z,29.30
2018-01-15T10:37:31.018Z,28.00
2018-01-15T10:38:31.054Z,29.70
2018-01-15T10:39:31.078Z,26.40
2018-01-15T10:40:31.114Z,27.10
2018-01-15T10:41:31.149Z,27.20
2018-01-15T10:42:31.175Z,26.20
2018-01-15T10:43:31.203Z,28.50
2018-01-15T10:44:31.234Z,27.90
2018-01-15T10:45:31.265Z,26.80
2018-01-15T10:46:31.295Z,27.20
2018-01-15T10:47:31.325Z,27.10
2018-01-15T10:48:31.371Z,27.40
2018-01-15T10:49:31.384Z,24.60
2018-01-15T10:50:31.414Z,26.10
2018-01-15T10:51:31.457Z,25.50
2018-01-15T10:52:31.474Z,26.40
2018-01-15T10:53:31.505Z,25.90
2018-01-15T10:54:31.534Z,26.20
2018-01-15T10:55:31.581Z,27.10
2018-01-15T10:56:31.595Z,29.30
2018-01-15T10:57:31.630Z,27.60
2018-01-15T10:58:31.655Z,25.80
2018-01-15T10:59:31.686Z,26.40
2018-01-15T11:00:31.718Z,32.60
2018-01-15T11:01:31.748Z,39.70
2018-01-15T11:02:31.779Z,36.50
2018-01-15T11:03:31.808Z,37.20
2018-01-15T11:04:31.838Z,39.40
2018-01-15T11:05:31.977Z,46.20
2018-01-15T11:06:31.901Z,35.90
2018-01-15T11:07:31.928Z,31.50
2018-01-15T11:08:31.962Z,34.40
2018-01-15T11:09:31.991Z,31.20
2018-01-15T11:10:32.081Z,29.70
2018-01-15T11:11:32.052Z,26.40
2018-01-15T11:12:32.083Z,28.50
2018-01-15T11:13:32.118Z,26.30
2018-01-15T11:14:32.158Z,27.40
2018-01-15T11:15:32.172Z,26.60
2018-01-15T11:16:32.206Z,26.10
2018-01-15T11:17:32.242Z,27.10
2018-01-15T11:18:32.268Z,27.70
2018-01-15T11:19:32.298Z,26.40
2018-01-15T11:20:32.329Z,28.90
2018-01-15T11:21:32.361Z,29.70
2018-01-15T11:22:32.391Z,28.20
2018-01-15T11:23:32.420Z,26.50
2018-01-15T11:24:32.518Z,29.30
2018-01-15T11:25:32.512Z,26.30
2018-01-15T11:26:32.511Z,28.90
2018-01-15T11:27:32.541Z,26.80
2018-01-15T11:28:32.570Z,26.20
2018-01-15T11:29:32.601Z,28.10
2018-01-15T11:30:32.634Z,25.60
2018-01-15T11:31:32.667Z,26.20
2018-01-15T11:32:32.694Z,27.40
2018-01-15T11:33:32.725Z,26.30
2018-01-15T11:34:32.753Z,26.60
2018-01-15T11:35:32.797Z,26.40
2018-01-15T11:36:32.869Z,28.00
2018-01-15T11:37:32.849Z,29.10
2018-01-15T11:38:32.881Z,26.30
2018-01-15T11:39:32.923Z,29.70
2018-01-15T11:40:32.940Z,30.20
2018-01-15T11:41:32.980Z,27.40
2018-01-15T11:42:33.013Z,28.70
2018-01-15T11:43:33.030Z,30.20
2018-01-15T11:44:33.061Z,33.10
2018-01-15T11:45:33.090Z,27.60
2018-01-15T11:46:33.123Z,28.60
2018-01-15T11:47:33.153Z,28.60
2018-01-15T11:48:33.210Z,32.00
2018-01-15T11:49:33.216Z,27.40
2018-01-15T11:50:33.246Z,25.20
2018-01-15T11:51:33.296Z,27.40
2018-01-15T11:52:33.307Z,28.50
2018-01-15T11:53:33.336Z,26.10
2018-01-15T11:54:33.373Z,28.60
2018-01-15T11:55:33.397Z,31.30
2018-01-15T11:56:33.431Z,26.10
2018-01-15T11:57:33.461Z,25.90
2018-01-15T11:58:33.492Z,27.10
2018-01-15T11:59:33.522Z,28.10
2018-01-15T12:00:33.554Z,24.10
2018-01-15T12:01:33.582Z,26.00
2018-01-15T12:02:33.615Z,25.90
2018-01-15T12:03:33.645Z,25.30
2018-01-15T12:04:33.682Z,27.40
2018-01-15T12:05:33.712Z,27.00
2018-01-15T12:06:33.738Z,27.40
2018-01-15T12:07:33.800Z,27.30
2018-01-15T12:08:33.805Z,26.70
2018-01-15T12:09:33.833Z,26.00
2018-01-15T12:10:33.864Z,25.90
2018-01-15T12:11:33.893Z,27.70
2018-01-15T12:12:33.923Z,28.40
2018-01-15T12:14:33.986Z,29.00
2018-01-15T12:15:34.015Z,28.50
2018-01-15T12:16:34.046Z,28.40
2018-01-15T12:17:34.138Z,31.30
2018-01-15T12:18:34.106Z,29.90
2018-01-15T12:19:34.151Z,31.20
2018-01-15T12:20:34.170Z,29.50
2018-01-15T12:21:34.217Z,26.10
2018-01-15T12:22:34.290Z,31.10
2018-01-15T12:23:34.265Z,26.90
2018-01-15T12:24:34.364Z,28.60
2018-01-15T12:25:34.333Z,27.20
2018-01-15T12:26:34.353Z,26.70
2018-01-15T12:27:34.384Z,24.00
2018-01-15T12:28:34.416Z,25.10
2018-01-15T12:29:34.448Z,26.00
2018-01-15T12:30:34.478Z,26.70
2018-01-15T12:31:34.508Z,26.10
2018-01-15T12:32:34.542Z,27.60
2018-01-15T12:33:34.578Z,29.80
2018-01-15T12:34:34.606Z,29.10
2018-01-15T12:35:34.636Z,25.00
2018-01-15T12:36:34.666Z,24.70
2018-01-15T12:37:34.696Z,26.00
2018-01-15T12:38:34.728Z,25.40
2018-01-15T12:39:34.817Z,25.50
2018-01-15T12:40:34.789Z,24.30
2018-01-15T12:41:34.827Z,22.10
2018-01-15T12:42:34.852Z,25.40
2018-01-15T12:43:34.881Z,28.00
2018-01-15T12:44:34.917Z,24.90
2018-01-15T12:45:34.951Z,25.80
2018-01-15T12:46:34.977Z,24.70
2018-01-15T12:47:35.006Z,28.20
2018-01-15T12:48:35.100Z,24.30
2018-01-15T12:49:35.071Z,27.80
2018-01-15T12:50:35.100Z,23.90
2018-01-15T12:51:35.136Z,25.00
2018-01-15T12:52:35.164Z,25.60
2018-01-15T12:53:35.193Z,28.70
2018-01-15T12:54:35.228Z,26.00